createdAt,value
2018-08-24T00:01:18.663Z,5.07
2018-08-24T00:03:47.360Z,5.47
2018-08-24T00:06:16.032Z,6.20
2018-08-24T00:08:44.838Z,5.47
2018-08-24T00:11:13.579Z,5.67
2018-08-24T00:13:42.307Z,4.77
2018-08-24T00:16:11.043Z,5.47
2018-08-24T00:18:39.824Z,5.60
2018-08-24T00:21:08.636Z,5.10
2018-08-24T00:23:37.412Z,4.80
2018-08-24T00:26:06.100Z,5.40
2018-08-24T00:28:34.809Z,4.57
2018-08-24T00:31:03.597Z,4.40
2018-08-24T00:33:32.949Z,5.37
2018-08-24T00:36:01.691Z,5.43
2018-08-24T00:38:30.500Z,4.93
2018-08-24T00:40:59.194Z,4.43
2018-08-24T00:43:27.981Z,5.23
2018-08-24T00:45:56.677Z,4.80
2018-08-24T00:48:25.397Z,4.77
2018-08-24T00:50:54.393Z,4.63
2018-08-24T00:53:24.008Z,5.30
2018-08-24T00:55:52.753Z,4.80
2018-08-24T00:58:21.478Z,5.03
2018-08-24T01:00:50.190Z,4.37
2018-08-24T01:03:18.914Z,4.70
2018-08-24T01:05:47.653Z,5.53
2018-08-24T01:08:17.409Z,4.37
2018-08-24T01:10:46.248Z,5.10
2018-08-24T01:13:15.616Z,5.43
2018-08-24T01:15:54.265Z,5.40
2018-08-24T01:18:55.190Z,4.97
2018-08-24T01:21:24.054Z,5.23
2018-08-24T01:23:52.911Z,5.10
2018-08-24T01:26:24.469Z,4.73
2018-08-24T01:28:54.305Z,4.80
2018-08-24T01:31:23.240Z,5.27
2018-08-24T01:33:52.489Z,4.47
2018-08-24T01:36:21.177Z,4.90
2018-08-24T01:38:49.925Z,4.50
2018-08-24T01:41:18.608Z,4.87
2018-08-24T01:43:47.265Z,5.53
2018-08-24T01:46:16.349Z,4.90
2018-08-24T01:48:45.054Z,4.83
2018-08-24T01:51:13.741Z,4.43
2018-08-24T01:53:42.420Z,4.87
2018-08-24T01:56:12.381Z,5.03
2018-08-24T01:58:41.074Z,5.33
2018-08-24T02:01:09.761Z,4.60
2018-08-24T02:03:38.433Z,5.10
2018-08-24T02:06:08.241Z,5.00
2018-08-24T02:08:49.986Z,5.93
2018-08-24T02:11:24.928Z,4.60
2018-08-24T02:14:01.214Z,4.37
2018-08-24T02:16:33.530Z,4.50
2018-08-24T02:19:11.631Z,4.47
2018-08-24T02:21:46.729Z,4.17
2018-08-24T02:24:15.367Z,4.57
2018-08-24T02:26:44.874Z,5.83
2018-08-24T02:29:13.700Z,4.77
2018-08-24T02:31:47.750Z,4.60
2018-08-24T02:34:16.430Z,4.93
2018-08-24T02:36:45.641Z,4.63
2018-08-24T02:39:16.560Z,4.80
2018-08-24T02:41:46.291Z,5.30
2018-08-24T02:44:16.027Z,5.53
2018-08-24T02:46:45.389Z,5.90
2018-08-24T02:49:15.385Z,5.27
2018-08-24T02:51:45.143Z,5.67
2018-08-24T02:54:14.894Z,6.00
2018-08-24T02:56:43.716Z,5.97
2018-08-24T02:59:12.471Z,6.30
2018-08-24T03:01:41.114Z,5.37
2018-08-24T03:04:09.874Z,6.00
2018-08-24T03:06:38.486Z,6.20
2018-08-24T03:09:09.812Z,7.40
2018-08-24T03:11:38.590Z,6.40
2018-08-24T03:14:07.394Z,6.10
2018-08-24T03:16:36.071Z,7.10
2018-08-24T03:19:04.845Z,6.13
2018-08-24T03:21:33.576Z,6.43
2018-08-24T03:24:02.272Z,7.10
2018-08-24T03:26:31.050Z,7.03
2018-08-24T03:28:59.679Z,6.03
2018-08-24T03:31:28.472Z,6.20
2018-08-24T03:33:57.147Z,7.50
2018-08-24T03:36:25.891Z,6.40
2018-08-24T03:38:54.746Z,6.60
2018-08-24T03:41:23.460Z,7.70
2018-08-24T03:43:52.171Z,8.07
2018-08-24T03:46:21.930Z,7.33
2018-08-24T03:48:50.619Z,7.43
2018-08-24T03:51:19.374Z,7.83
2018-08-24T03:53:48.036Z,6.60
2018-08-24T03:56:16.731Z,6.60
2018-08-24T03:58:45.596Z,7.30
2018-08-24T04:01:14.318Z,6.80
2018-08-24T04:03:42.959Z,6.90
2018-08-24T04:06:11.698Z,7.43
2018-08-24T04:08:40.356Z,6.90
2018-08-24T04:11:09.031Z,7.40
2018-08-24T04:13:37.731Z,7.93
2018-08-24T04:16:06.480Z,7.77
2018-08-24T04:18:36.482Z,7.07
2018-08-24T04:21:05.321Z,7.90
2018-08-24T04:23:34.052Z,8.20
2018-08-24T04:26:03.045Z,8.07
2018-08-24T04:28:31.658Z,8.10
2018-08-24T04:31:00.363Z,7.73
2018-08-24T04:33:30.075Z,8.80
2018-08-24T04:35:59.028Z,8.03
2018-08-24T04:38:27.683Z,8.37
2018-08-24T04:40:56.424Z,7.70
2018-08-24T04:43:25.174Z,7.50
2018-08-24T04:45:53.955Z,7.70
2018-08-24T04:48:22.770Z,6.43
2018-08-24T04:50:51.475Z,8.00
2018-08-24T04:53:21.484Z,8.00
2018-08-24T04:55:50.308Z,7.10
2018-08-24T04:58:19.281Z,8.27
2018-08-24T05:00:48.254Z,7.70
2018-08-24T05:03:18.212Z,7.27
2018-08-24T05:05:46.993Z,7.40
2018-08-24T05:08:15.772Z,8.10
2018-08-24T05:10:44.468Z,7.83
2018-08-24T05:13:13.365Z,7.20
2018-08-24T05:15:42.076Z,6.17
2018-08-24T05:18:10.883Z,7.03
2018-08-24T05:20:39.596Z,7.70
2018-08-24T05:23:08.378Z,7.03
2018-08-24T05:25:37.153Z,7.10
2018-08-24T05:28:06.210Z,8.00
2018-08-24T05:30:34.884Z,7.00
2018-08-24T05:33:03.763Z,7.47
2018-08-24T05:35:32.439Z,7.10
2018-08-24T05:38:01.232Z,6.43
2018-08-24T05:40:30.992Z,6.30
2018-08-24T05:43:00.331Z,6.27
2018-08-24T05:45:32.950Z,5.80
2018-08-24T05:48:01.769Z,6.73
2018-08-24T05:50:30.655Z,5.80
2018-08-24T05:52:59.436Z,6.50
2018-08-24T05:55:28.187Z,6.60
2018-08-24T05:57:56.882Z,5.97
2018-08-24T06:00:30.922Z,6.27
2018-08-24T06:02:59.659Z,5.80
2018-08-24T06:05:28.388Z,6.40
2018-08-24T06:07:57.175Z,5.77
2018-08-24T06:10:26.053Z,5.53
2018-08-24T06:12:54.780Z,5.50
2018-08-24T06:15:23.475Z,6.57
2018-08-24T06:17:53.416Z,5.30
2018-08-24T06:20:22.939Z,5.67
2018-08-24T06:22:51.808Z,4.60
2018-08-24T06:25:20.609Z,4.60
2018-08-24T06:27:49.327Z,4.47
2018-08-24T06:30:18.011Z,4.70
2018-08-24T06:32:46.843Z,5.20
2018-08-24T06:35:15.791Z,5.40
2018-08-24T06:37:44.599Z,4.97
2018-08-24T06:40:13.411Z,5.20
2018-08-24T06:42:42.065Z,4.47
2018-08-24T06:45:10.775Z,7.17
2018-08-24T06:47:39.591Z,5.23
2018-08-24T06:50:08.523Z,4.27
2018-08-24T06:52:37.235Z,4.60
2018-08-24T06:55:06.714Z,4.53
2018-08-24T06:57:35.678Z,4.53
2018-08-24T07:00:04.675Z,5.30
2018-08-24T07:02:33.355Z,3.87
2018-08-24T07:05:02.347Z,4.37
2018-08-24T07:07:31.132Z,5.17
2018-08-24T07:09:59.870Z,4.50
2018-08-24T07:12:28.653Z,4.83
2018-08-24T07:14:57.482Z,4.87
2018-08-24T07:17:31.308Z,4.57
2018-08-24T07:20:00.034Z,4.60
2018-08-24T07:22:28.830Z,5.33
2018-08-24T07:24:57.720Z,6.43
2018-08-24T07:27:26.351Z,4.60
2018-08-24T07:29:55.095Z,4.63
2018-08-24T07:32:23.830Z,4.43
2018-08-24T07:34:52.648Z,4.60
2018-08-24T07:37:21.638Z,4.23
2018-08-24T07:39:50.380Z,4.60
2018-08-24T07:42:19.131Z,4.10
2018-08-24T07:44:53.480Z,3.77
2018-08-24T07:47:23.003Z,4.17
2018-08-24T07:49:52.205Z,3.60
2018-08-24T07:52:21.054Z,5.20
2018-08-24T07:54:49.812Z,4.20
2018-08-24T07:57:18.540Z,4.80
2018-08-24T07:59:47.383Z,4.87
2018-08-24T08:02:16.083Z,4.70
2018-08-24T08:04:44.788Z,4.10
2018-08-24T08:07:13.739Z,4.20
2018-08-24T08:09:42.454Z,3.97
2018-08-24T08:12:11.193Z,4.07
2018-08-24T08:14:44.184Z,4.40
2018-08-24T08:17:14.378Z,4.70
2018-08-24T08:19:44.126Z,4.87
2018-08-24T08:22:12.857Z,5.00
2018-08-24T08:24:41.596Z,4.33
2018-08-24T08:27:11.512Z,5.30
2018-08-24T08:29:45.616Z,4.73
2018-08-24T08:32:14.324Z,5.27
2018-08-24T08:34:49.207Z,4.30
2018-08-24T08:37:17.960Z,4.77
2018-08-24T08:39:46.715Z,4.40
2018-08-24T08:42:15.435Z,4.47
2018-08-24T08:44:44.156Z,4.00
2018-08-24T08:47:12.904Z,6.80
2018-08-24T08:49:41.667Z,5.90
2018-08-24T08:52:11.172Z,4.37
2018-08-24T08:54:39.963Z,4.80
2018-08-24T08:57:08.771Z,4.90
2018-08-24T08:59:37.512Z,4.47
2018-08-24T09:02:08.683Z,4.73
2018-08-24T09:04:37.819Z,4.90
2018-08-24T09:07:06.795Z,5.20
2018-08-24T09:09:37.082Z,4.90
2018-08-24T09:12:06.388Z,4.67
2018-08-24T09:14:35.354Z,5.00
2018-08-24T09:17:09.173Z,4.30
2018-08-24T09:19:43.259Z,4.80
2018-08-24T09:22:17.407Z,4.90
2018-08-24T09:24:51.424Z,4.73
2018-08-24T09:27:25.255Z,4.80
2018-08-24T09:29:55.367Z,4.30
2018-08-24T09:32:24.177Z,5.23
2018-08-24T09:34:52.954Z,4.60
2018-08-24T09:37:29.263Z,4.03
2018-08-24T09:39:58.013Z,4.60
2018-08-24T09:42:26.768Z,4.17
2018-08-24T09:44:56.424Z,4.80
2018-08-24T09:47:30.588Z,5.00
2018-08-24T09:50:04.968Z,4.80
2018-08-24T09:52:33.781Z,5.53
2018-08-24T09:55:02.449Z,6.50
2018-08-24T09:57:31.316Z,6.90
2018-08-24T10:00:00.066Z,5.93
2018-08-24T10:02:34.358Z,7.07
2018-08-24T10:05:08.435Z,6.87
2018-08-24T10:07:42.387Z,7.37
2018-08-24T10:10:11.351Z,6.80
2018-08-24T10:12:40.060Z,6.90
2018-08-24T10:15:09.960Z,8.20
2018-08-24T10:17:38.717Z,7.90
2018-08-24T10:20:07.717Z,7.50
2018-08-24T10:22:36.588Z,7.00
2018-08-24T10:25:05.639Z,7.80
2018-08-24T10:27:34.561Z,7.73
2018-08-24T10:30:03.540Z,7.10
2018-08-24T10:32:33.409Z,7.80
2018-08-24T10:35:02.318Z,7.83
2018-08-24T10:37:31.026Z,8.17
2018-08-24T10:39:59.754Z,8.00
2018-08-24T10:42:28.545Z,7.20
2018-08-24T10:44:57.194Z,8.50
2018-08-24T10:47:25.903Z,8.20
2018-08-24T10:49:54.566Z,8.17
2018-08-24T10:52:23.419Z,8.43
2018-08-24T10:54:52.068Z,8.93
2018-08-24T10:57:20.791Z,8.77
2018-08-24T10:59:49.428Z,8.07
2018-08-24T11:02:18.084Z,8.60
2018-08-24T11:04:46.795Z,8.53
2018-08-24T11:07:15.600Z,8.80
2018-08-24T11:09:44.219Z,8.33
2018-08-24T11:12:12.898Z,9.90
2018-08-24T11:14:41.642Z,7.70
2018-08-24T11:17:11.339Z,7.60
2018-08-24T11:19:40.028Z,8.27
2018-08-24T11:22:17.636Z,7.70
2018-08-24T11:24:46.370Z,8.03
2018-08-24T11:27:15.059Z,7.97
2018-08-24T11:29:44.572Z,9.10
2018-08-24T11:32:13.202Z,8.23
2018-08-24T11:34:41.827Z,8.27
2018-08-24T11:37:10.479Z,7.40
2018-08-24T11:39:39.095Z,8.70
2018-08-24T11:42:07.764Z,8.37
2018-08-24T11:44:36.537Z,7.93
2018-08-24T11:47:05.320Z,7.90
2018-08-24T11:49:33.957Z,7.63
2018-08-24T11:52:02.835Z,6.83
2018-08-24T11:54:31.634Z,7.87
2018-08-24T11:57:00.176Z,7.27
2018-08-24T11:59:28.853Z,7.13
2018-08-24T12:01:57.529Z,8.07
2018-08-24T12:04:26.148Z,6.83
2018-08-24T12:06:54.971Z,8.73
2018-08-24T12:09:24.361Z,8.00
2018-08-24T12:11:53.017Z,8.93
2018-08-24T12:14:21.768Z,7.67
2018-08-24T12:16:50.450Z,7.87
2018-08-24T12:19:19.156Z,8.10
2018-08-24T12:21:47.807Z,7.57
2018-08-24T12:24:16.471Z,8.20
2018-08-24T12:26:45.202Z,7.67
2018-08-24T12:29:13.807Z,7.80
2018-08-24T12:31:42.547Z,7.30
2018-08-24T12:34:11.291Z,6.90
2018-08-24T12:36:39.880Z,7.27
2018-08-24T12:39:10.054Z,7.00
2018-08-24T12:41:38.865Z,7.57
2018-08-24T12:44:07.828Z,7.50
2018-08-24T12:46:36.567Z,8.27
2018-08-24T12:49:05.398Z,7.17
2018-08-24T12:51:34.145Z,8.30
2018-08-24T12:54:02.919Z,7.50
2018-08-24T12:56:31.591Z,8.00
2018-08-24T12:59:00.440Z,8.20
2018-08-24T13:01:30.083Z,7.90
2018-08-24T13:03:58.687Z,8.33
2018-08-24T13:06:27.377Z,7.43
2018-08-24T13:08:57.078Z,7.90
2018-08-24T13:11:25.873Z,8.10
2018-08-24T13:13:54.535Z,7.50
2018-08-24T13:16:23.221Z,8.80
2018-08-24T13:18:51.951Z,8.83
2018-08-24T13:21:20.859Z,9.00
2018-08-24T13:23:49.472Z,7.30
2018-08-24T13:26:18.091Z,8.90
2018-08-24T13:28:46.780Z,9.57
2018-08-24T13:31:16.229Z,8.47
2018-08-24T13:33:44.857Z,8.23
2018-08-24T13:36:13.512Z,8.13
2018-08-24T13:38:42.168Z,8.13
2018-08-24T13:41:10.983Z,8.60
2018-08-24T13:43:39.691Z,9.00
2018-08-24T13:46:08.435Z,7.90
2018-08-24T13:48:37.054Z,8.63
2018-08-24T13:51:05.665Z,7.77
2018-08-24T13:53:34.464Z,8.27
2018-08-24T13:56:03.142Z,7.07
2018-08-24T13:58:31.805Z,7.50
2018-08-24T14:01:00.527Z,9.23
2018-08-24T14:03:29.212Z,7.97
2018-08-24T14:05:57.863Z,8.53
2018-08-24T14:08:26.538Z,7.73
2018-08-24T14:10:55.196Z,8.03
2018-08-24T14:13:23.937Z,7.17
2018-08-24T14:15:52.679Z,8.00
2018-08-24T14:18:21.359Z,7.60
2018-08-24T14:20:50.204Z,7.80
2018-08-24T14:23:18.868Z,8.40
2018-08-24T14:25:47.497Z,7.17
2018-08-24T14:28:16.317Z,7.83
2018-08-24T14:30:45.042Z,8.37
2018-08-24T14:33:13.715Z,7.90
2018-08-24T14:35:42.369Z,8.40
2018-08-24T14:38:11.127Z,8.03
2018-08-24T14:40:39.860Z,8.80
2018-08-24T14:43:08.528Z,9.07
2018-08-24T14:45:37.249Z,9.13
2018-08-24T14:48:05.958Z,8.77
2018-08-24T14:50:34.697Z,9.37
2018-08-24T14:53:03.730Z,9.87
2018-08-24T14:55:32.414Z,11.50
2018-08-24T14:58:01.113Z,12.97
2018-08-24T15:00:29.844Z,14.63
2018-08-24T15:02:58.518Z,15.27
2018-08-24T15:05:27.183Z,15.50
2018-08-24T15:07:55.842Z,16.90
2018-08-24T15:10:24.535Z,16.00
2018-08-24T15:12:53.204Z,15.20
2018-08-24T15:15:21.813Z,15.60
2018-08-24T15:17:50.516Z,15.73
2018-08-24T15:20:19.237Z,14.70
2018-08-24T15:22:47.891Z,14.20
2018-08-24T15:25:16.582Z,15.10
2018-08-24T15:27:45.229Z,14.40
2018-08-24T15:30:13.910Z,13.77
2018-08-24T15:32:49.651Z,13.97
2018-08-24T15:35:18.412Z,15.23
2018-08-24T15:37:47.035Z,12.30
2018-08-24T15:40:15.669Z,13.20
2018-08-24T15:42:44.341Z,15.50
2018-08-24T15:45:12.975Z,14.20
2018-08-24T15:47:41.595Z,14.80
2018-08-24T15:50:10.246Z,13.97
2018-08-24T15:52:39.088Z,14.03
2018-08-24T15:55:07.889Z,12.47
2018-08-24T15:57:36.629Z,9.77
2018-08-24T16:00:06.518Z,9.17
2018-08-24T16:02:35.197Z,9.33
2018-08-24T16:05:03.998Z,9.27
2018-08-24T16:07:37.090Z,8.60
2018-08-24T16:10:06.332Z,8.70
2018-08-24T16:12:35.177Z,9.13
2018-08-24T16:15:04.903Z,8.20
2018-08-24T16:17:33.617Z,8.23
2018-08-24T16:20:02.278Z,7.63
2018-08-24T16:22:30.903Z,8.80
2018-08-24T16:24:59.552Z,8.70
2018-08-24T16:27:28.283Z,9.10
2018-08-24T16:29:57.689Z,10.63
2018-08-24T16:32:26.394Z,8.40
2018-08-24T16:34:55.307Z,9.60
2018-08-24T16:37:24.070Z,10.10
2018-08-24T16:39:52.732Z,9.07
2018-08-24T16:42:24.773Z,11.10
2018-08-24T16:44:53.510Z,10.10
2018-08-24T16:47:22.186Z,9.33
2018-08-24T16:49:50.853Z,10.10
2018-08-24T16:52:19.494Z,10.60
2018-08-24T16:54:48.376Z,10.07
2018-08-24T16:57:17.115Z,9.77
2018-08-24T16:59:46.713Z,10.70
2018-08-24T17:02:15.412Z,9.90
2018-08-24T17:04:44.094Z,8.80
2018-08-24T17:07:12.782Z,13.07
2018-08-24T17:09:41.440Z,11.57
2018-08-24T17:12:10.067Z,7.77
2018-08-24T17:14:38.859Z,8.03
2018-08-24T17:17:07.575Z,8.40
2018-08-24T17:19:36.205Z,8.27
2018-08-24T17:22:04.936Z,8.00
2018-08-24T17:24:33.595Z,9.53
2018-08-24T17:27:02.228Z,8.20
2018-08-24T17:29:30.887Z,8.40
2018-08-24T17:31:59.568Z,8.37
2018-08-24T17:34:29.021Z,7.87
2018-08-24T17:36:57.739Z,6.80
2018-08-24T17:39:27.236Z,7.00
2018-08-24T17:41:56.006Z,6.57
2018-08-24T17:44:24.809Z,6.80
2018-08-24T17:46:53.690Z,6.97
2018-08-24T17:49:22.440Z,6.73
2018-08-24T17:51:51.095Z,6.40
2018-08-24T17:54:19.824Z,6.67
2018-08-24T17:56:48.779Z,7.00
2018-08-24T17:59:17.435Z,6.90
2018-08-24T18:01:47.088Z,7.13
2018-08-24T18:04:15.785Z,8.77
2018-08-24T18:06:44.478Z,7.20
2018-08-24T18:09:13.176Z,7.70
2018-08-24T18:11:42.117Z,7.50
2018-08-24T18:14:10.732Z,6.77
2018-08-24T18:16:39.393Z,7.63
2018-08-24T18:19:08.230Z,7.33
2018-08-24T18:21:36.920Z,10.53
2018-08-24T18:24:05.681Z,9.80
2018-08-24T18:26:34.418Z,9.03
2018-08-24T18:29:03.055Z,9.07
2018-08-24T18:31:31.648Z,9.43
2018-08-24T18:34:00.527Z,9.83
2018-08-24T18:36:29.227Z,9.20
2018-08-24T18:38:58.124Z,10.80
2018-08-24T18:41:26.953Z,10.30
2018-08-24T18:43:55.740Z,9.77
2018-08-24T18:46:24.387Z,10.47
2018-08-24T18:48:53.173Z,10.30
2018-08-24T18:51:21.840Z,10.90
2018-08-24T18:53:50.487Z,10.50
2018-08-24T18:56:19.173Z,11.20
2018-08-24T18:58:47.917Z,11.17
2018-08-24T19:01:16.852Z,11.83
2018-08-24T19:03:45.652Z,12.43
2018-08-24T19:06:14.313Z,11.60
2018-08-24T19:08:43.036Z,12.80
2018-08-24T19:11:16.833Z,12.60
2018-08-24T19:13:45.633Z,12.20
2018-08-24T19:16:14.432Z,13.80
2018-08-24T19:18:48.186Z,13.50
2018-08-24T19:21:22.073Z,12.00
2018-08-24T19:23:50.760Z,11.77
2018-08-24T19:26:19.673Z,12.83
2018-08-24T19:28:53.803Z,11.50
2018-08-24T19:31:22.617Z,11.67
2018-08-24T19:33:51.287Z,12.40
2018-08-24T19:36:19.940Z,12.27
2018-08-24T19:38:49.689Z,12.07
2018-08-24T19:41:23.641Z,12.00
2018-08-24T19:43:52.393Z,13.50
2018-08-24T19:46:21.028Z,12.07
2018-08-24T19:48:55.134Z,11.47
2018-08-24T19:51:23.876Z,11.50
2018-08-24T19:53:52.643Z,11.53
2018-08-24T19:56:21.435Z,12.50
2018-08-24T19:58:56.277Z,11.43
2018-08-24T20:01:24.886Z,11.20
2018-08-24T20:03:53.572Z,11.13
2018-08-24T20:06:27.666Z,12.80
2018-08-24T20:09:01.582Z,11.47
2018-08-24T20:11:30.255Z,11.67
2018-08-24T20:13:58.974Z,11.30
2018-08-24T20:16:32.830Z,12.07
2018-08-24T20:19:01.446Z,12.93
2018-08-24T20:21:30.083Z,12.73
2018-08-24T20:23:58.874Z,12.60
2018-08-24T20:26:27.585Z,12.70
2018-08-24T20:28:56.283Z,13.37
2018-08-24T20:31:24.895Z,12.33
2018-08-24T20:33:53.523Z,13.17
2018-08-24T20:36:22.208Z,12.50
2018-08-24T20:38:50.893Z,13.90
2018-08-24T20:41:19.549Z,14.53
2018-08-24T20:43:48.179Z,13.37
2018-08-24T20:46:17.019Z,13.50
2018-08-24T20:48:45.774Z,13.87
2018-08-24T20:51:14.420Z,14.73
2018-08-24T20:53:42.987Z,17.00
2018-08-24T20:56:11.684Z,13.97
2018-08-24T20:58:40.282Z,14.30
2018-08-24T21:01:08.935Z,13.67
2018-08-24T21:03:37.593Z,15.03
2018-08-24T21:06:06.259Z,15.67
2018-08-24T21:08:34.848Z,14.07
2018-08-24T21:11:03.583Z,14.63
2018-08-24T21:13:32.198Z,15.47
2018-08-24T21:16:00.890Z,14.77
2018-08-24T21:18:30.914Z,14.33
2018-08-24T21:21:01.209Z,15.40
2018-08-24T21:23:30.675Z,14.10
2018-08-24T21:26:04.288Z,13.70
2018-08-24T21:28:33.024Z,13.13
2018-08-24T21:31:01.715Z,15.10
2018-08-24T21:33:30.359Z,14.87
2018-08-24T21:35:58.977Z,15.30
2018-08-24T21:38:27.911Z,14.33
2018-08-24T21:40:56.568Z,13.87
2018-08-24T21:43:25.247Z,14.13
2018-08-24T21:45:53.876Z,14.47
2018-08-24T21:48:22.522Z,13.93
2018-08-24T21:50:51.175Z,15.60
2018-08-24T21:53:19.900Z,14.47
2018-08-24T21:55:48.499Z,13.97
2018-08-24T21:58:17.361Z,14.20
2018-08-24T22:00:46.236Z,16.40
2018-08-24T22:03:14.882Z,14.07
2018-08-24T22:05:43.546Z,18.40
2018-08-24T22:08:12.356Z,15.50
2018-08-24T22:10:41.084Z,15.47
2018-08-24T22:13:09.786Z,15.50
2018-08-24T22:15:38.477Z,13.27
2018-08-24T22:18:07.127Z,15.00
2018-08-24T22:20:35.710Z,15.83
2018-08-24T22:23:04.382Z,14.87
2018-08-24T22:25:32.970Z,14.73
2018-08-24T22:28:01.604Z,15.00
2018-08-24T22:30:30.336Z,15.63
2018-08-24T22:32:58.971Z,15.40
2018-08-24T22:35:27.608Z,14.20
2018-08-24T22:37:56.252Z,13.97
2018-08-24T22:40:24.882Z,16.10
2018-08-24T22:42:53.591Z,16.70
2018-08-24T22:45:23.622Z,15.00
2018-08-24T22:47:53.086Z,14.70
2018-08-24T22:50:22.853Z,14.00
2018-08-24T22:52:51.486Z,18.97
2018-08-24T22:55:20.076Z,15.10
2018-08-24T22:57:48.700Z,16.23
2018-08-24T23:00:17.416Z,18.23
2018-08-24T23:02:46.070Z,17.90
2018-08-24T23:05:14.710Z,15.17
2018-08-24T23:07:43.389Z,14.30
2018-08-24T23:10:12.007Z,16.40
2018-08-24T23:12:40.657Z,16.10
2018-08-24T23:15:09.272Z,14.70
2018-08-24T23:17:37.979Z,15.10
2018-08-24T23:20:06.621Z,15.73
2018-08-24T23:22:35.219Z,14.93
2018-08-24T23:25:03.844Z,15.70
2018-08-24T23:27:32.784Z,15.10
2018-08-24T23:30:01.386Z,14.57
2018-08-24T23:32:30.093Z,13.80
2018-08-24T23:34:59.740Z,15.43
2018-08-24T23:37:28.361Z,14.73
2018-08-24T23:39:57.711Z,14.87
2018-08-24T23:42:26.428Z,15.20
2018-08-24T23:44:55.073Z,15.13
2018-08-24T23:47:23.755Z,14.07
2018-08-24T23:49:52.479Z,14.60
2018-08-24T23:52:21.311Z,16.00
2018-08-24T23:54:49.918Z,13.40
2018-08-24T23:57:18.535Z,13.30
2018-08-24T23:59:47.193Z,15.40
